Time;durP1;ratioP1;P1;durP2;ratioP2;P2;SDS_P1;SDS_P2;PMS_P1;PMS_P2;Temp;Humidity;BMP_temperature;BMP_pressure;BME280_temperature;BME280_humidity;BME280_pressure;Samples;Min_cycle;Max_cycle;Signal;HPM_P1;HPM_P2
2023/05/29 00:00:52;;;;;;;3.53;2.60;;;16.50;67.00;;;;;;2092841;28;20103;-71
2023/05/29 00:01:53;;;;;;;3.35;2.20;;;16.50;67.30;;;;;;2093281;28;20021;-71
2023/05/29 00:02:53;;;;;;;5.65;3.45;;;16.40;67.50;;;;;;2093961;28;20025;-71
2023/05/29 00:03:54;;;;;;;4.45;1.98;;;16.40;67.60;;;;;;2092962;28;20061;-71
2023/05/29 00:04:54;;;;;;;3.58;2.63;;;16.40;67.60;;;;;;2094024;28;20028;-71
2023/05/29 00:05:55;;;;;;;3.08;2.47;;;16.40;67.20;;;;;;2093649;28;20028;-72
2023/05/29 00:06:55;;;;;;;3.63;2.58;;;16.40;67.60;;;;;;2092539;28;20032;-71
2023/05/29 00:07:56;;;;;;;3.00;2.17;;;16.40;67.40;;;;;;2091293;28;20036;-71
2023/05/29 00:08:56;;;;;;;2.40;2.17;;;16.40;67.50;;;;;;2092254;28;20147;-71
2023/05/29 00:09:57;;;;;;;5.38;2.53;;;16.40;67.70;;;;;;2093144;28;20024;-71
2023/05/29 00:10:58;;;;;;;3.45;2.50;;;16.30;68.00;;;;;;2091928;28;20049;-71
2023/05/29 00:11:58;;;;;;;6.47;2.53;;;16.30;67.80;;;;;;2093275;28;20035;-72
2023/05/29 00:13:00;;;;;;;7.32;3.17;;;16.30;68.50;;;;;;2093795;28;20063;-71
2023/05/29 00:14:01;;;;;;;4.75;2.50;;;16.30;69.50;;;;;;2090764;28;20020;-72
2023/05/29 00:15:05;;;;;;;4.03;2.40;;;16.30;69.20;;;;;;2093335;28;20017;-71
2023/05/29 00:16:06;;;;;;;4.18;2.95;;;16.30;68.70;;;;;;2091757;28;20028;-71
2023/05/29 00:17:06;;;;;;;2.83;2.28;;;16.20;69.30;;;;;;2092149;28;20029;-71
2023/05/29 00:18:07;;;;;;;4.10;2.55;;;16.20;69.70;;;;;;2092548;28;20048;-72
2023/05/29 00:19:08;;;;;;;3.40;2.40;;;16.20;70.10;;;;;;2091677;28;20032;-71
2023/05/29 00:20:10;;;;;;;8.07;3.28;;;16.10;70.40;;;;;;2092103;28;20507;-71
2023/05/29 00:21:14;;;;;;;7.53;2.75;;;16.10;70.60;;;;;;2092264;28;20112;-71
2023/05/29 00:22:14;;;;;;;4.38;2.85;;;16.10;70.80;;;;;;2092809;28;20016;-71
2023/05/29 00:23:15;;;;;;;3.97;2.90;;;16.10;71.10;;;;;;2092072;28;20025;-72
2023/05/29 00:24:16;;;;;;;4.15;2.75;;;16.00;71.10;;;;;;2093557;28;20028;-71
2023/05/29 00:25:18;;;;;;;4.00;2.50;;;16.00;71.70;;;;;;2093255;28;20110;-71
2023/05/29 00:26:18;;;;;;;3.92;2.50;;;16.00;71.70;;;;;;2095014;28;20257;-71
2023/05/29 00:27:19;;;;;;;5.43;3.10;;;16.00;72.40;;;;;;2092401;28;20029;-71
2023/05/29 00:28:20;;;;;;;3.95;2.40;;;16.00;72.70;;;;;;2092730;28;20048;-71
2023/05/29 00:29:22;;;;;;;5.47;2.63;;;15.90;73.10;;;;;;2092897;28;20112;-71
2023/05/29 00:30:22;;;;;;;3.92;2.40;;;15.90;73.90;;;;;;2091914;28;20025;-71
2023/05/29 00:31:24;;;;;;;4.55;2.72;;;15.90;73.40;;;;;;2090157;28;20416;-72
2023/05/29 00:32:25;;;;;;;3.58;2.70;;;15.90;73.90;;;;;;2092993;28;20835;-72
2023/05/29 00:33:26;;;;;;;3.80;2.47;;;15.80;73.70;;;;;;2090787;28;20074;-72
2023/05/29 00:34:26;;;;;;;4.50;2.85;;;15.80;73.50;;;;;;2092005;28;20666;-71
2023/05/29 00:35:27;;;;;;;3.92;2.53;;;15.80;74.10;;;;;;2090279;28;20036;-71
2023/05/29 00:36:28;;;;;;;3.42;2.85;;;15.80;74.40;;;;;;2091786;28;20025;-71
2023/05/29 00:37:29;;;;;;;5.85;2.60;;;15.80;74.80;;;;;;2092170;28;20027;-71
2023/05/29 00:38:29;;;;;;;4.95;2.85;;;15.70;75.30;;;;;;2091044;28;20024;-71
2023/05/29 00:39:30;;;;;;;3.42;2.40;;;15.70;75.60;;;;;;2091454;28;20013;-71
2023/05/29 00:40:30;;;;;;;4.78;2.80;;;15.70;76.00;;;;;;2094324;28;20021;-71
2023/05/29 00:41:31;;;;;;;7.13;2.42;;;15.70;76.40;;;;;;2094492;28;20465;-71
2023/05/29 00:42:31;;;;;;;5.65;2.80;;;15.60;76.10;;;;;;2093231;28;20017;-71
2023/05/29 00:43:32;;;;;;;5.25;2.83;;;15.60;76.80;;;;;;2092064;28;20067;-71
2023/05/29 00:44:33;;;;;;;7.30;2.67;;;15.60;77.40;;;;;;2091750;28;20032;-71
2023/05/29 00:45:36;;;;;;;3.97;2.70;;;15.60;78.40;;;;;;2092908;28;20024;-71
2023/05/29 00:46:36;;;;;;;4.70;2.55;;;15.60;78.40;;;;;;2091150;28;20021;-71
2023/05/29 00:47:37;;;;;;;5.78;2.72;;;15.60;78.90;;;;;;2092626;28;20119;-71
2023/05/29 00:48:37;;;;;;;3.55;2.60;;;15.50;79.30;;;;;;2091574;28;20625;-71
2023/05/29 00:49:38;;;;;;;5.00;2.70;;;15.40;79.80;;;;;;2093017;28;20117;-71
2023/05/29 00:50:40;;;;;;;5.65;2.97;;;15.40;80.10;;;;;;2093485;28;20721;-71
2023/05/29 00:51:42;;;;;;;8.00;3.33;;;15.40;80.60;;;;;;2092882;28;20048;-71
2023/05/29 00:52:45;;;;;;;5.15;2.88;;;15.40;81.30;;;;;;2093479;28;20071;-71
2023/05/29 00:53:47;;;;;;;6.78;3.03;;;15.40;81.80;;;;;;2091068;28;20052;-70
2023/05/29 00:54:48;;;;;;;4.28;2.70;;;15.30;81.90;;;;;;2092432;28;20017;-71
2023/05/29 00:55:49;;;;;;;5.70;2.67;;;15.30;82.50;;;;;;2091950;28;20454;-70
2023/05/29 00:56:50;;;;;;;3.63;2.50;;;15.30;82.70;;;;;;2092836;28;20021;-71
2023/05/29 00:57:50;;;;;;;6.72;2.65;;;15.30;83.80;;;;;;2092619;28;20017;-71
2023/05/29 00:58:52;;;;;;;8.38;3.03;;;15.30;83.70;;;;;;2092021;28;20020;-71
2023/05/29 00:59:53;;;;;;;9.50;3.03;;;15.20;84.40;;;;;;2091800;28;20028;-71
2023/05/29 01:00:54;;;;;;;7.15;2.72;;;15.20;84.50;;;;;;2091365;28;20134;-71
2023/05/29 01:01:56;;;;;;;7.25;3.00;;;15.20;84.40;;;;;;2091140;28;20079;-71
2023/05/29 01:02:58;;;;;;;7.93;3.20;;;15.10;85.40;;;;;;2092218;28;20028;-71
2023/05/29 01:04:00;;;;;;;6.45;3.20;;;15.10;85.90;;;;;;2092324;28;20024;-71
2023/05/29 01:05:01;;;;;;;7.07;2.97;;;15.10;86.30;;;;;;2090931;28;20039;-71
2023/05/29 01:06:03;;;;;;;6.97;2.90;;;15.00;87.00;;;;;;2091465;28;20036;-70
2023/05/29 01:07:04;;;;;;;6.13;2.80;;;15.00;87.40;;;;;;2093173;28;20036;-71
2023/05/29 01:08:04;;;;;;;6.57;2.70;;;15.00;87.60;;;;;;2095156;28;20021;-71
2023/05/29 01:09:05;;;;;;;7.68;2.90;;;14.90;87.90;;;;;;2090891;28;20706;-70
2023/05/29 01:10:07;;;;;;;7.43;3.05;;;14.90;87.20;;;;;;2091034;28;20074;-71
2023/05/29 01:11:23;;;;;;;8.82;3.00;;;14.90;88.00;;;;;;2093601;28;20111;-71
2023/05/29 01:12:23;;;;;;;7.82;3.10;;;14.90;89.70;;;;;;2091038;28;20021;-71
2023/05/29 01:13:30;;;;;;;15.13;3.28;;;14.90;89.40;;;;;;2093144;28;20013;-71
2023/05/29 01:14:33;;;;;;;9.70;3.30;;;14.80;90.10;;;;;;2092506;28;20020;-71
2023/05/29 01:15:52;;;;;;;7.72;3.17;;;14.80;90.40;;;;;;2091587;28;20047;-71
2023/05/29 01:17:06;;;;;;;5.78;3.25;;;14.80;91.20;;;;;;2092837;28;20074;-70
2023/05/29 01:18:31;;;;;;;10.82;3.40;;;14.70;91.20;;;;;;2092124;28;20024;-70
2023/05/29 01:19:55;;;;;;;7.45;3.15;;;14.60;92.10;;;;;;2092711;28;20082;-71
2023/05/29 01:21:11;;;;;;;12.52;3.92;;;14.60;92.10;;;;;;2091952;28;20041;-71
2023/05/29 01:23:02;;;;;;;6.05;2.70;;;14.50;92.50;;;;;;2092194;28;20099;-71
2023/05/29 01:24:38;;;;;;;8.63;2.97;;;14.50;93.40;;;;;;2070973;28;20030;-71
2023/05/29 01:25:47;;;;;;;14.80;3.78;;;14.40;93.70;;;;;;2055086;28;20021;-71
2023/05/29 01:27:00;;;;;;;8.55;2.92;;;14.40;92.70;;;;;;2092036;28;20021;-71
2023/05/29 01:28:07;;;;;;;11.07;3.03;;;14.40;93.30;;;;;;2094164;28;20027;-71
2023/05/29 01:29:12;;;;;;;6.90;2.75;;;14.40;93.40;;;;;;2093718;28;20024;-70
2023/05/29 01:30:15;;;;;;;9.57;2.60;;;14.40;93.90;;;;;;2090823;28;20024;-70
2023/05/29 01:31:20;;;;;;;8.40;2.83;;;14.30;94.10;;;;;;2092260;28;20020;-71
2023/05/29 01:32:22;;;;;;;8.85;3.33;;;14.30;94.60;;;;;;2091216;28;20085;-71
2023/05/29 01:33:23;;;;;;;11.50;3.30;;;14.30;94.80;;;;;;2093169;28;20021;-71
2023/05/29 01:34:25;;;;;;;10.18;3.25;;;14.30;95.00;;;;;;2091784;28;20116;-70
2023/05/29 01:35:26;;;;;;;10.70;3.88;;;14.30;95.50;;;;;;2091946;28;20032;-71
2023/05/29 01:36:27;;;;;;;10.15;3.10;;;14.20;95.70;;;;;;2089581;28;20028;-71
2023/05/29 01:37:28;;;;;;;10.20;3.40;;;14.20;95.60;;;;;;2091722;28;20480;-71
2023/05/29 01:38:28;;;;;;;11.98;3.85;;;14.20;95.90;;;;;;2091012;28;20384;-71
2023/05/29 01:39:30;;;;;;;8.50;3.25;;;14.20;96.10;;;;;;2091366;28;20065;-71
2023/05/29 01:40:31;;;;;;;11.32;3.50;;;14.20;96.30;;;;;;2090074;28;20630;-71
2023/05/29 01:41:32;;;;;;;7.15;2.80;;;14.20;96.50;;;;;;2092340;28;20370;-71
2023/05/29 01:42:33;;;;;;;8.02;3.50;;;14.20;96.60;;;;;;2091044;28;20028;-70
2023/05/29 01:43:34;;;;;;;6.65;3.08;;;14.10;96.80;;;;;;2092205;28;20063;-71
2023/05/29 01:44:37;;;;;;;8.80;3.00;;;14.10;97.10;;;;;;2092847;28;20025;-71
2023/05/29 01:45:38;;;;;;;11.18;3.40;;;14.10;97.20;;;;;;2092725;28;20024;-71
2023/05/29 01:46:40;;;;;;;9.02;3.30;;;14.10;97.70;;;;;;2091223;28;20032;-71
2023/05/29 01:47:41;;;;;;;9.63;3.45;;;14.00;98.20;;;;;;2091700;28;20392;-71
2023/05/29 01:48:43;;;;;;;9.43;2.78;;;14.00;97.80;;;;;;2093145;28;20056;-71
2023/05/29 01:49:47;;;;;;;11.10;3.08;;;14.00;98.20;;;;;;2093338;28;20077;-71
2023/05/29 01:50:48;;;;;;;10.52;2.90;;;14.00;98.70;;;;;;2090815;28;20029;-71
2023/05/29 01:51:49;;;;;;;10.00;3.55;;;14.00;98.70;;;;;;2090974;28;20033;-71
2023/05/29 01:52:49;;;;;;;8.85;3.17;;;14.00;99.10;;;;;;2091456;28;20024;-71
2023/05/29 01:53:50;;;;;;;10.05;3.47;;;13.90;99.40;;;;;;2092233;28;20025;-71
2023/05/29 01:54:50;;;;;;;8.57;3.38;;;13.90;99.50;;;;;;2091481;28;20024;-71
2023/05/29 01:55:51;;;;;;;10.90;3.42;;;13.90;99.60;;;;;;2091526;28;20012;-71
2023/05/29 01:56:52;;;;;;;7.93;3.58;;;13.90;99.60;;;;;;2089336;28;20032;-71
2023/05/29 01:57:56;;;;;;;7.35;2.83;;;13.90;99.90;;;;;;2091195;28;20025;-71
2023/05/29 01:58:59;;;;;;;11.95;3.83;;;13.90;99.90;;;;;;2090047;28;20021;-71
2023/05/29 02:00:00;;;;;;;13.30;4.18;;;13.90;99.90;;;;;;2092507;28;20059;-70
2023/05/29 02:01:03;;;;;;;9.25;3.03;;;13.90;99.90;;;;;;2091211;28;20028;-71
2023/05/29 02:02:08;;;;;;;10.05;3.85;;;13.90;99.90;;;;;;2091868;28;20055;-70
2023/05/29 02:03:08;;;;;;;8.48;3.40;;;13.80;99.90;;;;;;2091205;28;20017;-70
2023/05/29 02:04:09;;;;;;;10.52;3.20;;;13.80;99.90;;;;;;2093466;28;20580;-71
2023/05/29 02:05:10;;;;;;;14.75;3.53;;;13.80;99.90;;;;;;2091384;28;20025;-71
2023/05/29 02:06:13;;;;;;;13.45;3.85;;;13.80;99.90;;;;;;2092143;28;20476;-71
2023/05/29 02:07:16;;;;;;;9.27;3.20;;;13.80;99.90;;;;;;2095740;28;20028;-70
2023/05/29 02:08:16;;;;;;;10.95;3.30;;;13.80;99.90;;;;;;2095194;28;20093;-71
2023/05/29 02:09:17;;;;;;;11.65;3.67;;;13.80;99.90;;;;;;2091156;28;20021;-71
2023/05/29 02:10:18;;;;;;;8.82;3.25;;;13.80;99.90;;;;;;2083498;28;20059;-70
2023/05/29 02:11:18;;;;;;;10.38;3.38;;;13.80;99.90;;;;;;2091631;28;20120;-71
2023/05/29 02:12:19;;;;;;;8.80;3.88;;;13.80;99.90;;;;;;2092074;28;20035;-71
2023/05/29 02:13:20;;;;;;;9.25;3.65;;;13.80;99.90;;;;;;2090377;28;20032;-71
2023/05/29 02:14:21;;;;;;;11.23;3.95;;;13.70;99.90;;;;;;2092123;28;20083;-71
2023/05/29 02:15:21;;;;;;;10.32;3.53;;;13.70;99.90;;;;;;2093391;28;20025;-71
2023/05/29 02:16:22;;;;;;;12.27;3.10;;;13.70;99.90;;;;;;2092895;28;20049;-71
2023/05/29 02:17:23;;;;;;;12.15;3.95;;;13.70;99.90;;;;;;2091234;28;20029;-71
2023/05/29 02:18:23;;;;;;;11.93;3.92;;;13.70;99.90;;;;;;2092161;28;20502;-71
2023/05/29 02:19:25;;;;;;;10.90;2.97;;;13.70;99.90;;;;;;2092253;28;20020;-71
2023/05/29 02:20:25;;;;;;;10.93;3.17;;;13.70;99.90;;;;;;2091971;28;20017;-71
2023/05/29 02:21:26;;;;;;;15.90;4.00;;;13.60;99.90;;;;;;2091535;28;20021;-71
2023/05/29 02:22:27;;;;;;;8.98;3.47;;;13.60;99.90;;;;;;2090216;28;20019;-71
2023/05/29 02:23:27;;;;;;;13.02;3.78;;;13.60;99.90;;;;;;2093361;28;20463;-71
2023/05/29 02:24:28;;;;;;;14.10;3.50;;;13.60;99.90;;;;;;2093066;28;20753;-70
2023/05/29 02:25:29;;;;;;;13.82;3.80;;;13.60;99.90;;;;;;2089173;28;20089;-71
2023/05/29 02:26:29;;;;;;;14.93;4.22;;;13.60;99.90;;;;;;2093936;28;20033;-71
2023/05/29 02:27:30;;;;;;;8.63;3.33;;;13.60;99.90;;;;;;2093703;28;20032;-71
2023/05/29 02:28:31;;;;;;;10.27;3.10;;;13.50;99.90;;;;;;2090975;28;20052;-71
2023/05/29 02:29:31;;;;;;;12.98;3.38;;;13.50;99.90;;;;;;2093224;28;20024;-71
2023/05/29 02:30:32;;;;;;;11.38;3.70;;;13.50;99.90;;;;;;2089477;28;20056;-70
2023/05/29 02:31:32;;;;;;;11.05;3.67;;;13.50;99.90;;;;;;2093402;28;20020;-71
2023/05/29 02:32:33;;;;;;;11.07;3.70;;;13.50;99.90;;;;;;2093110;28;20025;-70
2023/05/29 02:33:33;;;;;;;12.40;3.47;;;13.40;99.90;;;;;;2092893;28;20067;-70
2023/05/29 02:34:34;;;;;;;10.27;2.63;;;13.40;99.90;;;;;;2093761;28;20044;-71
2023/05/29 02:35:35;;;;;;;10.40;3.35;;;13.40;99.90;;;;;;2091955;28;20059;-71
2023/05/29 02:36:37;;;;;;;12.77;3.20;;;13.40;99.90;;;;;;2093647;28;20460;-71
2023/05/29 02:37:37;;;;;;;15.02;4.18;;;13.40;99.90;;;;;;2095307;28;20048;-71
2023/05/29 02:38:38;;;;;;;13.07;3.10;;;13.40;99.90;;;;;;2093399;28;20468;-71
2023/05/29 02:39:39;;;;;;;11.25;3.67;;;13.40;99.90;;;;;;2098540;28;20141;-71
2023/05/29 02:40:40;;;;;;;15.15;3.85;;;13.40;99.90;;;;;;2090766;28;20028;-71
2023/05/29 02:41:41;;;;;;;11.40;3.95;;;13.40;99.90;;;;;;2090553;28;20021;-71
2023/05/29 02:42:41;;;;;;;16.75;4.13;;;13.30;99.90;;;;;;2091478;28;20465;-71
2023/05/29 02:43:42;;;;;;;13.05;3.47;;;13.30;99.90;;;;;;2093348;28;20078;-71
2023/05/29 02:44:42;;;;;;;11.68;3.60;;;13.30;99.90;;;;;;2092422;28;20126;-71
2023/05/29 02:45:43;;;;;;;14.48;3.63;;;13.30;99.90;;;;;;2090373;28;20025;-71
2023/05/29 02:46:43;;;;;;;13.18;3.58;;;13.30;99.90;;;;;;2090687;28;20032;-71
2023/05/29 02:47:44;;;;;;;11.23;4.25;;;13.30;99.90;;;;;;2091553;28;20105;-71
2023/05/29 02:48:44;;;;;;;14.95;3.92;;;13.20;99.90;;;;;;2088639;28;20040;-71
2023/05/29 02:49:45;;;;;;;12.00;3.70;;;13.20;99.90;;;;;;2088709;28;20489;-71
2023/05/29 02:50:45;;;;;;;11.55;3.22;;;13.20;99.90;;;;;;2091022;28;20044;-71
2023/05/29 02:51:46;;;;;;;16.67;3.15;;;13.20;99.90;;;;;;2091353;28;20052;-71
2023/05/29 02:52:46;;;;;;;10.73;3.80;;;13.20;99.90;;;;;;2091676;28;20025;-71
2023/05/29 02:53:48;;;;;;;15.13;4.20;;;13.20;99.90;;;;;;2091384;28;20032;-71
2023/05/29 02:54:49;;;;;;;11.57;3.75;;;13.20;99.90;;;;;;2093485;28;20036;-70
2023/05/29 02:55:51;;;;;;;11.20;3.15;;;13.20;99.90;;;;;;2091413;28;20025;-71
2023/05/29 02:56:52;;;;;;;14.65;3.90;;;13.20;99.90;;;;;;2091259;28;20021;-71
2023/05/29 02:57:55;;;;;;;19.15;4.93;;;13.10;99.90;;;;;;2089216;28;20548;-71
2023/05/29 02:58:55;;;;;;;13.25;3.92;;;13.10;99.90;;;;;;2090151;28;20586;-71
2023/05/29 02:59:56;;;;;;;15.55;4.07;;;13.10;99.90;;;;;;2089944;28;20484;-71
2023/05/29 03:00:56;;;;;;;18.02;3.85;;;13.10;99.90;;;;;;2092157;28;20036;-71
2023/05/29 03:01:57;;;;;;;13.27;3.88;;;13.10;99.90;;;;;;2092631;28;20025;-71
2023/05/29 03:02:58;;;;;;;10.57;3.45;;;13.10;99.90;;;;;;2092916;28;20024;-71
2023/05/29 03:03:58;;;;;;;10.77;3.08;;;13.10;99.90;;;;;;2092701;28;20728;-70
2023/05/29 03:05:00;;;;;;;12.98;3.55;;;13.10;99.90;;;;;;2092975;28;20471;-71
2023/05/29 03:06:01;;;;;;;12.00;3.58;;;13.10;99.90;;;;;;2089804;28;20827;-71
2023/05/29 03:07:02;;;;;;;13.68;4.00;;;13.10;99.90;;;;;;2091983;28;20032;-71
2023/05/29 03:08:03;;;;;;;12.93;3.92;;;13.10;99.90;;;;;;2094048;28;20052;-70
2023/05/29 03:09:05;;;;;;;12.32;3.60;;;13.10;99.90;;;;;;2092672;28;20700;-71
2023/05/29 03:10:05;;;;;;;12.15;3.30;;;13.10;99.90;;;;;;2092529;28;20524;-71
2023/05/29 03:11:12;;;;;;;16.20;3.67;;;13.10;99.90;;;;;;2092875;28;20472;-71
2023/05/29 03:12:12;;;;;;;14.55;3.65;;;13.10;99.90;;;;;;2089082;28;20048;-71
2023/05/29 03:13:14;;;;;;;12.27;3.83;;;13.10;99.90;;;;;;2094159;28;20021;-71
2023/05/29 03:14:14;;;;;;;15.95;4.00;;;13.00;99.90;;;;;;2091915;28;20025;-71
2023/05/29 03:15:15;;;;;;;15.88;4.25;;;13.00;99.90;;;;;;2091406;28;20027;-71
2023/05/29 03:16:16;;;;;;;13.65;3.85;;;13.00;99.90;;;;;;2092767;28;20096;-71
2023/05/29 03:17:16;;;;;;;12.68;4.10;;;13.00;99.90;;;;;;2092890;28;20043;-71
2023/05/29 03:18:17;;;;;;;13.75;3.50;;;13.00;99.90;;;;;;2093261;28;20932;-71
2023/05/29 03:19:17;;;;;;;13.95;3.75;;;13.00;99.90;;;;;;2092282;28;20682;-71
2023/05/29 03:20:18;;;;;;;16.95;4.45;;;12.90;99.90;;;;;;2089019;28;20021;-71
2023/05/29 03:21:19;;;;;;;22.75;4.40;;;12.90;99.90;;;;;;2099129;28;20056;-71
2023/05/29 03:22:19;;;;;;;11.18;3.80;;;12.90;99.90;;;;;;2091537;28;20083;-71
2023/05/29 03:23:20;;;;;;;19.77;4.78;;;12.90;99.90;;;;;;2094134;28;20028;-71
2023/05/29 03:24:21;;;;;;;12.00;3.40;;;12.90;99.90;;;;;;2092854;28;20048;-70
2023/05/29 03:25:21;;;;;;;17.73;4.22;;;12.90;99.90;;;;;;2092898;28;20029;-71
2023/05/29 03:26:22;;;;;;;18.80;4.07;;;12.90;99.90;;;;;;2092311;28;20024;-71
2023/05/29 03:27:23;;;;;;;15.48;3.83;;;12.90;99.90;;;;;;2093232;28;20078;-71
2023/05/29 03:28:23;;;;;;;10.07;3.50;;;12.90;99.90;;;;;;2093691;28;20440;-71
2023/05/29 03:29:24;;;;;;;12.00;3.72;;;12.90;99.90;;;;;;2092226;28;20352;-70
2023/05/29 03:30:24;;;;;;;17.65;3.80;;;12.90;99.90;;;;;;2093449;28;20025;-71
2023/05/29 03:31:25;;;;;;;15.07;3.60;;;12.90;99.90;;;;;;2092617;28;20081;-71
2023/05/29 03:32:26;;;;;;;10.07;4.25;;;12.90;99.90;;;;;;2093390;28;20107;-70
2023/05/29 03:33:26;;;;;;;12.32;3.55;;;12.90;99.90;;;;;;2091130;28;20039;-71
2023/05/29 03:34:27;;;;;;;13.27;3.88;;;12.90;99.90;;;;;;2093167;28;20033;-71
2023/05/29 03:35:28;;;;;;;14.93;4.05;;;12.90;99.90;;;;;;2092222;28;20407;-71
2023/05/29 03:36:28;;;;;;;15.65;4.00;;;12.90;99.90;;;;;;2093667;28;20025;-71
2023/05/29 03:37:29;;;;;;;14.68;3.92;;;12.90;99.90;;;;;;2092605;28;20056;-71
2023/05/29 03:38:30;;;;;;;17.10;4.78;;;12.80;99.90;;;;;;2093315;28;20536;-71
2023/05/29 03:39:30;;;;;;;15.38;3.83;;;12.80;99.90;;;;;;2095186;28;20369;-71
2023/05/29 03:40:31;;;;;;;22.63;4.03;;;12.80;99.90;;;;;;2092974;28;20475;-71
2023/05/29 03:41:31;;;;;;;15.10;3.72;;;12.80;99.90;;;;;;2091819;28;20028;-71
2023/05/29 03:42:32;;;;;;;11.35;3.08;;;12.80;99.90;;;;;;2091856;28;20473;-71
2023/05/29 03:43:32;;;;;;;17.25;4.20;;;12.80;99.90;;;;;;2091173;28;20013;-71
2023/05/29 03:44:33;;;;;;;12.73;3.78;;;12.80;99.90;;;;;;2093622;28;20077;-71
2023/05/29 03:45:34;;;;;;;11.98;4.00;;;12.80;99.90;;;;;;2092122;28;20021;-71
2023/05/29 03:46:35;;;;;;;12.90;3.60;;;12.70;99.90;;;;;;2091073;28;20024;-70
2023/05/29 03:47:36;;;;;;;12.73;3.65;;;12.70;99.90;;;;;;2094384;28;20031;-71
2023/05/29 03:48:36;;;;;;;15.88;3.88;;;12.70;99.90;;;;;;2092060;28;20477;-71
2023/05/29 03:49:37;;;;;;;15.63;4.20;;;12.70;99.90;;;;;;2093279;28;20389;-71
2023/05/29 03:50:37;;;;;;;13.68;3.60;;;12.70;99.90;;;;;;2093136;28;20024;-71
2023/05/29 03:51:38;;;;;;;11.75;3.53;;;12.70;99.90;;;;;;2090016;28;20292;-71
2023/05/29 03:52:39;;;;;;;15.88;4.03;;;12.70;99.90;;;;;;2092159;28;20140;-71
2023/05/29 03:53:39;;;;;;;11.25;3.50;;;12.70;99.90;;;;;;2092030;28;20500;-71
2023/05/29 03:54:40;;;;;;;15.25;4.40;;;12.70;99.90;;;;;;2091257;28;20044;-71
2023/05/29 03:55:41;;;;;;;14.15;3.90;;;12.70;99.90;;;;;;2091817;28;20639;-71
2023/05/29 03:56:42;;;;;;;17.88;4.60;;;12.70;99.90;;;;;;2092604;28;20032;-71
2023/05/29 03:57:42;;;;;;;14.43;3.70;;;12.80;99.90;;;;;;2092740;28;20487;-71
2023/05/29 03:58:43;;;;;;;12.60;3.88;;;12.80;99.90;;;;;;2093042;28;20018;-71
2023/05/29 03:59:44;;;;;;;17.88;5.40;;;12.80;99.90;;;;;;2091937;28;20129;-71
2023/05/29 04:00:44;;;;;;;17.30;4.75;;;12.80;99.90;;;;;;2092851;28;20039;-71
2023/05/29 04:01:45;;;;;;;14.70;4.28;;;12.80;99.90;;;;;;2092147;28;20396;-71
2023/05/29 04:02:46;;;;;;;15.15;4.65;;;12.80;99.90;;;;;;2092947;28;20036;-71
2023/05/29 04:03:46;;;;;;;15.48;4.30;;;12.80;99.90;;;;;;2093778;28;20103;-71
2023/05/29 04:04:47;;;;;;;13.02;3.55;;;12.80;99.90;;;;;;2091135;28;20743;-71
2023/05/29 04:05:47;;;;;;;10.93;3.58;;;12.80;99.90;;;;;;2093969;28;20020;-71
2023/05/29 04:06:48;;;;;;;13.52;3.70;;;12.80;99.90;;;;;;2094941;28;20809;-71
2023/05/29 04:07:49;;;;;;;12.75;4.07;;;12.80;99.90;;;;;;2093886;28;20047;-71
2023/05/29 04:08:50;;;;;;;16.05;4.93;;;12.80;99.90;;;;;;2090230;28;20795;-71
2023/05/29 04:09:50;;;;;;;16.98;4.68;;;12.90;99.90;;;;;;2089859;28;20074;-71
2023/05/29 04:10:53;;;;;;;13.60;3.75;;;12.80;99.90;;;;;;2092131;28;20077;-71
2023/05/29 04:11:54;;;;;;;14.57;3.97;;;12.80;99.90;;;;;;2092764;28;20640;-70
2023/05/29 04:12:55;;;;;;;15.85;4.88;;;12.80;99.90;;;;;;2094749;28;20488;-71
2023/05/29 04:13:55;;;;;;;16.67;3.95;;;12.80;99.90;;;;;;2091877;28;20519;-71
2023/05/29 04:14:56;;;;;;;17.13;3.83;;;12.80;99.90;;;;;;2095034;28;20033;-71
2023/05/29 04:15:57;;;;;;;10.35;3.40;;;12.80;99.90;;;;;;2093334;28;20032;-71
2023/05/29 04:16:58;;;;;;;13.73;3.45;;;12.80;99.90;;;;;;2093764;28;20021;-71
2023/05/29 04:17:59;;;;;;;17.17;4.50;;;12.80;99.90;;;;;;2093169;28;20036;-71
2023/05/29 04:18:59;;;;;;;12.85;3.72;;;12.80;99.90;;;;;;2092589;28;20078;-71
2023/05/29 04:20:05;;;;;;;13.20;3.53;;;12.80;99.90;;;;;;2091143;28;20077;-71
2023/05/29 04:21:06;;;;;;;16.33;4.28;;;12.80;99.90;;;;;;2094770;28;20033;-71
2023/05/29 04:22:08;;;;;;;11.88;3.40;;;12.90;99.90;;;;;;2092955;28;20450;-71
2023/05/29 04:23:09;;;;;;;18.13;4.07;;;13.00;99.90;;;;;;2094455;28;20036;-71
2023/05/29 04:24:10;;;;;;;14.40;4.57;;;13.10;99.90;;;;;;2091323;28;20044;-71
2023/05/29 04:25:11;;;;;;;22.02;4.30;;;13.20;99.90;;;;;;2093421;28;20013;-71
2023/05/29 04:26:12;;;;;;;17.17;4.30;;;13.30;99.90;;;;;;2092718;28;20032;-71
2023/05/29 04:27:13;;;;;;;14.77;3.78;;;13.40;99.90;;;;;;2091303;28;20051;-71
2023/05/29 04:28:13;;;;;;;15.52;4.25;;;13.50;99.90;;;;;;2091525;28;20031;-71
2023/05/29 04:29:14;;;;;;;10.45;3.25;;;13.60;99.90;;;;;;2092902;28;20028;-71
2023/05/29 04:30:16;;;;;;;14.32;3.83;;;13.60;99.90;;;;;;2093074;28;20488;-71
2023/05/29 04:31:17;;;;;;;15.25;3.80;;;13.60;99.90;;;;;;2093727;28;20412;-70
2023/05/29 04:32:18;;;;;;;11.70;3.40;;;13.70;99.90;;;;;;2091246;28;20671;-71
2023/05/29 04:33:20;;;;;;;12.98;3.55;;;13.70;99.90;;;;;;2090667;28;20024;-71
2023/05/29 04:34:21;;;;;;;11.82;3.53;;;13.70;99.90;;;;;;2090206;28;20029;-71
2023/05/29 04:35:22;;;;;;;16.58;4.15;;;13.70;99.90;;;;;;2091880;28;20119;-71
2023/05/29 04:36:25;;;;;;;12.77;3.85;;;13.70;99.90;;;;;;2091817;28;21348;-70
2023/05/29 04:37:28;;;;;;;15.23;4.05;;;13.70;99.90;;;;;;2091464;28;20021;-71
2023/05/29 04:38:30;;;;;;;13.95;4.07;;;13.70;99.90;;;;;;2090743;28;20028;-71
2023/05/29 04:39:31;;;;;;;15.25;4.22;;;13.70;99.90;;;;;;2093487;28;20031;-71
2023/05/29 04:40:36;;;;;;;13.70;4.25;;;13.80;99.90;;;;;;2091413;28;20551;-71
2023/05/29 04:41:37;;;;;;;15.00;4.28;;;13.80;99.90;;;;;;2092685;28;20070;-71
2023/05/29 04:42:41;;;;;;;18.83;3.83;;;13.80;99.90;;;;;;2092318;28;20075;-71
2023/05/29 04:43:42;;;;;;;16.38;3.67;;;13.80;99.90;;;;;;2093622;28;20544;-71
2023/05/29 04:44:43;;;;;;;17.02;3.58;;;13.80;99.90;;;;;;2091026;28;20056;-71
2023/05/29 04:45:44;;;;;;;11.65;3.60;;;13.90;99.90;;;;;;2094171;28;20103;-71
2023/05/29 04:46:44;;;;;;;18.40;4.40;;;13.90;99.90;;;;;;2093852;28;20017;-71
2023/05/29 04:47:45;;;;;;;16.85;4.78;;;13.90;99.90;;;;;;2094678;28;20090;-71
2023/05/29 04:48:46;;;;;;;18.05;4.05;;;14.00;99.90;;;;;;2094640;28;20028;-71
2023/05/29 04:49:50;;;;;;;11.90;3.70;;;14.00;99.90;;;;;;2095605;28;20120;-71
2023/05/29 04:50:50;;;;;;;14.60;3.42;;;14.00;99.90;;;;;;2093270;28;20037;-71
2023/05/29 04:51:52;;;;;;;14.30;3.97;;;14.00;99.90;;;;;;2090534;28;20040;-71
2023/05/29 04:52:53;;;;;;;13.55;3.65;;;14.10;99.90;;;;;;2091932;28;20032;-71
2023/05/29 04:53:53;;;;;;;14.80;3.70;;;14.10;99.90;;;;;;2094433;28;20511;-71
2023/05/29 04:54:54;;;;;;;11.23;3.33;;;14.20;99.90;;;;;;2092142;28;20032;-71
2023/05/29 04:55:55;;;;;;;17.40;4.68;;;14.20;99.90;;;;;;2093938;28;20021;-70
2023/05/29 04:56:56;;;;;;;17.58;4.50;;;14.20;99.90;;;;;;2093429;28;20102;-71
2023/05/29 04:57:56;;;;;;;12.35;3.42;;;14.20;99.90;;;;;;2091568;28;20465;-71
2023/05/29 04:58:58;;;;;;;11.07;3.78;;;14.20;99.90;;;;;;2091453;28;20032;-71
2023/05/29 04:59:58;;;;;;;13.30;4.00;;;14.20;99.90;;;;;;2092163;28;20135;-71
2023/05/29 05:00:59;;;;;;;12.90;3.90;;;14.30;99.90;;;;;;2091993;28;20087;-71
2023/05/29 05:02:00;;;;;;;9.20;3.60;;;14.30;99.90;;;;;;2095604;28;20095;-71
2023/05/29 05:03:00;;;;;;;12.82;3.22;;;14.20;99.90;;;;;;2094608;28;20509;-71
2023/05/29 05:04:01;;;;;;;14.02;4.40;;;14.20;99.90;;;;;;2095776;28;20388;-71
2023/05/29 05:05:02;;;;;;;11.57;3.90;;;14.30;99.90;;;;;;2092161;28;20042;-71
2023/05/29 05:06:03;;;;;;;14.20;3.67;;;14.30;99.90;;;;;;2091507;28;20027;-71
2023/05/29 05:07:05;;;;;;;11.15;3.40;;;14.30;99.90;;;;;;2090002;28;20028;-71
2023/05/29 05:08:06;;;;;;;12.05;3.53;;;14.40;99.90;;;;;;2091545;28;20025;-71
2023/05/29 05:09:06;;;;;;;12.88;3.63;;;14.50;99.90;;;;;;2090627;28;20017;-71
2023/05/29 05:10:07;;;;;;;16.65;4.70;;;14.50;99.90;;;;;;2091280;28;20018;-71
2023/05/29 05:11:08;;;;;;;15.15;4.13;;;14.50;99.90;;;;;;2094770;28;20028;-71
2023/05/29 05:12:08;;;;;;;15.15;3.97;;;14.60;99.90;;;;;;2089960;28;20033;-71
2023/05/29 05:13:11;;;;;;;14.63;3.80;;;14.60;99.90;;;;;;2091772;28;20056;-70
2023/05/29 05:14:11;;;;;;;14.50;3.42;;;14.60;99.90;;;;;;2089937;28;20016;-71
2023/05/29 05:15:12;;;;;;;15.73;3.63;;;14.60;99.90;;;;;;2090535;28;20029;-70
2023/05/29 05:16:13;;;;;;;10.68;3.40;;;14.70;99.90;;;;;;2092843;28;20024;-71
2023/05/29 05:17:13;;;;;;;15.98;4.80;;;14.70;99.90;;;;;;2091802;28;20874;-71
2023/05/29 05:18:14;;;;;;;16.27;4.25;;;14.80;99.90;;;;;;2092757;28;20013;-71
2023/05/29 05:19:15;;;;;;;14.95;4.10;;;14.80;99.90;;;;;;2091839;28;20053;-71